Hobe Sound, Florida
Current Conditions -  °F | °C
As of 4:47 PM on Monday 20 Oct 2014 (Local Time) from KSUA Reporting Station
Scattered Clouds Scattered Clouds  
Wind Chill: 82°   Ceiling: Unl
Heat Index: 85°   Visibility: 7mi
Dew Point: 66°   Wind: 14mph
Humidity: 58%   Direction: 100°E
Pressure: 29.97"   Gusts: NA
Location:  27.06°N, 80.14°W
Report Text: KSUA 202047Z 10012KT 7SM SCT020 28/19 A2997
Loading
Personal Weather Stations






























Interactive Weather Map
Tropical Storm Tracking
New forecast layout! Learn more

10-Day Weather Forecast

Advertisements
Track Severe Weather on mobile